Woodlawn, Tennessee
Current Conditions -  °F | °C
As of 1:52 AM on Thursday 18 Dec 2014 (Local Time) from KCKV Reporting Station
Freezing Rain Freezing Rain  
Wind Chill: 32°   Ceiling: 8000
Heat Index: 32°   Visibility: 7mi
Dew Point: 28°   Wind: 0mph
Humidity: 85%   Direction: NA
Pressure: 30.28"   Gusts: NA
Location:  36.54°N, 87.51°W
Report Text: KCKV 180752Z AUTO 00000KT 7SM -FZRA OVC080 00/M02 A3028 RMK AO2 RAB12E22UPB22E46FZRAB46 SLP259 P0002 I1001 T00001022
Loading
Personal Weather Stations






























Interactive Weather Map New forecast layout! Learn more

10-Day Weather Forecast

Advertisements
Track Severe Weather on mobile